Hovedside
METAR-TAF:

METAR-TAF

Lufthavner :

Essaouira, Marokko

breddegrad: 31-31N, lengdegrad: 009-47W, høyde over havet: 15 m

Gjeldene værobservasjon

Denne rapporten ble laget for 1 time og 9 minutter siden, klokken 09:00 UTC
Vind 8 kt fra Øst
Temperatur 16°C
Luftfuktighet 68%
Trykk 1021 hPa
Sikt: 6000 m
Spredte skyer i en høyde av 1300 ft
Spredte skyer i en høyde av 2600 ft

METAR: GMMI 260900Z 10008KT 6000 SCT013 SCT026 16/10 Q1021 NOSIG

Tid: 11:09 (10:09 UTC)

Varsel

Denne rapporten ble laget for 5 timer og 9 minutter siden, klokken 05:00 UTC
Varsel gyldig fra 26. klokken 06 UTC til 27. klokken 12 UTC
Vind 6 kt fra Øst-nordøst
Sikt: 6000 m
Spredte skyer i en høyde av 1300 ft
Spredte skyer i en høyde av 2600 ft
Blir
fra 26. klokken 10 UTC til 26. klokken 12 UTC
Brutte skyer i en høyde av 1000 ft

TAF: GMMI 260500Z 2606/2712 07006KT 6000 SCT013 SCT026 BECMG 2610/2612 BKN010

Værobservasjoner og værvarsel for over 4000 flyplasser (METAR- og TAF-rapporter).

Tilgjengelige stasjoner er representert av de røde og gule prikkene på kartet.

Hold musepekeren over prikken for å se navnet på stasjonen.

Klikk så for å se værobservasjoner og -varsler.

For å forandre kartet kan du klikke på den grønne knappen med svart kryss for å zoome inn, på den grønne knappen med strek for å zoome ut, eller på de grønne pilene for å se tilstøtende kart.


METAR-TAF: